createdAt,value
2018-12-08T00:04:40.055Z,1.95
2018-12-08T00:09:42.539Z,2.17
2018-12-08T00:14:45.029Z,2.17
2018-12-08T00:19:47.425Z,2.25
2018-12-08T00:24:50.050Z,2.90
2018-12-08T00:29:52.582Z,2.30
2018-12-08T00:34:55.004Z,1.92
2018-12-08T00:39:57.361Z,2.12
2018-12-08T00:44:59.817Z,2.30
2018-12-08T00:50:02.279Z,2.25
2018-12-08T00:55:04.978Z,2.20
2018-12-08T01:00:07.593Z,2.05
2018-12-08T01:05:10.168Z,2.12
2018-12-08T01:10:12.584Z,2.30
2018-12-08T01:15:15.145Z,2.10
2018-12-08T01:20:17.560Z,2.00
2018-12-08T01:25:20.701Z,2.67
2018-12-08T01:30:23.383Z,2.00
2018-12-08T01:35:25.744Z,2.83
2018-12-08T01:40:29.056Z,3.00
2018-12-08T01:45:31.909Z,2.15
2018-12-08T01:50:34.450Z,2.12
2018-12-08T01:55:37.015Z,2.00
2018-12-08T02:00:39.502Z,1.98
2018-12-08T02:05:41.875Z,2.20
2018-12-08T02:10:44.274Z,2.25
2018-12-08T02:15:46.737Z,2.22
2018-12-08T02:20:49.136Z,2.00
2018-12-08T02:25:51.626Z,2.22
2018-12-08T02:30:54.349Z,1.95
2018-12-08T02:35:56.823Z,1.80
2018-12-08T02:40:59.264Z,2.10
2018-12-08T02:46:01.710Z,1.80
2018-12-08T02:51:04.521Z,2.05
2018-12-08T02:56:07.013Z,1.45
2018-12-08T03:01:09.649Z,1.80
2018-12-08T03:06:12.065Z,1.70
2018-12-08T03:11:14.508Z,1.82
2018-12-08T03:16:16.850Z,1.80
2018-12-08T03:21:19.320Z,1.75
2018-12-08T03:26:21.737Z,1.80
2018-12-08T03:31:24.232Z,1.85
2018-12-08T03:36:26.658Z,1.82
2018-12-08T03:41:29.270Z,1.98
2018-12-08T03:46:31.695Z,2.15
2018-12-08T03:51:34.209Z,1.80
2018-12-08T03:56:36.617Z,2.10
2018-12-08T04:01:39.079Z,2.00
2018-12-08T04:06:41.510Z,1.87
2018-12-08T04:11:43.982Z,1.75
2018-12-08T04:16:46.430Z,2.02
2018-12-08T04:21:48.851Z,1.75
2018-12-08T04:26:52.047Z,1.72
2018-12-08T04:31:54.567Z,2.17
2018-12-08T04:36:56.927Z,1.87
2018-12-08T04:41:59.553Z,1.57
2018-12-08T04:47:01.922Z,1.70
2018-12-08T04:52:04.313Z,1.70
2018-12-08T04:57:06.711Z,1.90
2018-12-08T05:02:09.122Z,1.80
2018-12-08T05:07:11.462Z,1.75
2018-12-08T05:12:13.795Z,1.92
2018-12-08T05:17:16.197Z,1.80
2018-12-08T05:22:18.586Z,1.95
2018-12-08T05:27:21.014Z,1.80
2018-12-08T05:32:23.508Z,1.60
2018-12-08T05:37:26.336Z,1.60
2018-12-08T05:42:28.723Z,1.57
2018-12-08T05:47:31.028Z,1.85
2018-12-08T05:52:34.605Z,1.87
2018-12-08T05:57:37.397Z,2.10
2018-12-08T06:02:40.489Z,1.87
2018-12-08T06:07:42.799Z,1.92
2018-12-08T06:12:45.246Z,2.35
2018-12-08T06:17:47.743Z,1.90
2018-12-08T06:22:50.121Z,2.95
2018-12-08T06:28:30.249Z,2.58
2018-12-08T06:33:32.584Z,2.83
2018-12-08T06:38:34.977Z,3.62
2018-12-08T06:43:37.333Z,2.35
2018-12-08T06:48:39.665Z,2.35
2018-12-08T06:53:42.238Z,2.90
2018-12-08T06:58:44.717Z,2.05
2018-12-08T07:03:47.116Z,2.58
2018-12-08T07:08:49.671Z,2.67
2018-12-08T07:13:51.977Z,2.80
2018-12-08T07:18:54.745Z,2.92
2018-12-08T07:23:57.093Z,3.85
2018-12-08T07:28:59.453Z,3.25
2018-12-08T07:34:01.823Z,2.90
2018-12-08T07:39:05.764Z,3.02
2018-12-08T07:44:08.555Z,2.50
2018-12-08T07:49:10.882Z,3.55
2018-12-08T07:54:13.238Z,2.92
2018-12-08T07:59:15.649Z,2.72
2018-12-08T08:04:18.087Z,2.50
2018-12-08T08:09:20.385Z,2.58
2018-12-08T08:14:23.228Z,2.47
2018-12-08T08:19:25.669Z,2.45
2018-12-08T08:24:28.110Z,2.12
2018-12-08T08:29:30.669Z,2.17
2018-12-08T08:34:33.240Z,2.22
2018-12-08T08:39:47.376Z,1.87
2018-12-08T08:44:54.770Z,1.87
2018-12-08T08:49:59.701Z,1.80
2018-12-08T08:55:02.864Z,1.87
2018-12-08T09:00:07.681Z,1.90
2018-12-08T09:05:16.717Z,1.98
2018-12-08T09:10:19.204Z,2.00
2018-12-08T09:15:22.592Z,1.82
2018-12-08T09:20:25.128Z,1.67
2018-12-08T09:25:27.526Z,2.10
2018-12-08T09:30:29.994Z,1.60
2018-12-08T09:35:33.238Z,1.72
2018-12-08T09:40:35.635Z,1.90
2018-12-08T09:45:41.818Z,1.67
2018-12-08T09:50:42.824Z,1.85
2018-12-08T09:55:45.358Z,1.42
2018-12-08T10:00:48.360Z,1.47
2018-12-08T10:05:50.880Z,2.08
2018-12-08T10:10:53.315Z,1.65
2018-12-08T10:15:55.937Z,1.52
2018-12-08T10:20:58.327Z,1.75
2018-12-08T10:26:01.249Z,1.92
2018-12-08T10:31:03.673Z,1.92
2018-12-08T10:36:06.241Z,1.80
2018-12-08T10:41:08.746Z,2.08
2018-12-08T10:46:11.693Z,1.90
2018-12-08T10:51:14.276Z,1.95
2018-12-08T10:56:17.097Z,2.00
2018-12-08T11:01:24.411Z,1.98
2018-12-08T11:06:26.858Z,2.42
2018-12-08T11:11:29.744Z,1.90
2018-12-08T11:16:32.470Z,1.90
2018-12-08T11:21:34.862Z,1.95
2018-12-08T11:26:37.594Z,2.20
2018-12-08T11:31:39.969Z,1.72
2018-12-08T11:36:49.484Z,1.87
2018-12-08T11:41:47.701Z,1.70
2018-12-08T11:46:50.415Z,1.80
2018-12-08T11:51:52.880Z,1.72
2018-12-08T11:56:55.447Z,1.42
2018-12-08T12:01:58.050Z,1.72
2018-12-08T12:07:00.691Z,1.92
2018-12-08T12:12:03.282Z,1.52
2018-12-08T12:17:05.915Z,1.52
2018-12-08T12:22:08.356Z,1.60
2018-12-08T12:27:10.858Z,1.47
2018-12-08T12:32:13.538Z,1.80
2018-12-08T12:37:16.047Z,1.70
2018-12-08T12:42:18.531Z,1.70
2018-12-08T12:47:21.095Z,1.77
2018-12-08T12:52:23.601Z,1.50
2018-12-08T12:57:25.992Z,2.00
2018-12-08T13:02:28.364Z,1.40
2018-12-08T13:07:30.797Z,1.67
2018-12-08T13:12:33.511Z,2.00
2018-12-08T13:17:35.959Z,1.50
2018-12-08T13:22:38.386Z,1.90
2018-12-08T13:27:40.755Z,1.90
2018-12-08T13:32:43.158Z,1.70
2018-12-08T13:37:45.518Z,1.77
2018-12-08T13:42:47.942Z,1.75
2018-12-08T13:47:50.377Z,1.67
2018-12-08T13:52:52.928Z,1.72
2018-12-08T13:57:55.380Z,1.60
2018-12-08T14:02:57.784Z,1.75
2018-12-08T14:08:00.344Z,1.80
2018-12-08T14:13:02.944Z,1.60
2018-12-08T14:18:05.406Z,1.60
2018-12-08T14:23:08.587Z,1.52
2018-12-08T14:28:11.275Z,1.20
2018-12-08T14:33:15.346Z,1.57
2018-12-08T14:38:18.261Z,1.60
2018-12-08T14:43:20.873Z,1.60
2018-12-08T14:48:30.478Z,1.70
2018-12-08T14:53:33.123Z,1.55
2018-12-08T14:58:35.634Z,1.77
2018-12-08T15:03:38.268Z,1.80
2018-12-08T15:08:41.182Z,1.80
2018-12-08T15:13:43.787Z,1.70
2018-12-08T15:18:46.329Z,1.60
2018-12-08T15:23:48.878Z,1.40
2018-12-08T15:28:51.482Z,1.57
2018-12-08T15:33:54.062Z,1.70
2018-12-08T15:38:56.623Z,1.92
2018-12-08T15:43:59.243Z,2.20
2018-12-08T15:49:01.830Z,1.85
2018-12-08T15:54:04.446Z,2.10
2018-12-08T15:59:07.026Z,1.70
2018-12-08T16:04:09.594Z,1.75
2018-12-08T16:09:12.138Z,2.00
2018-12-08T16:14:14.691Z,2.00
2018-12-08T16:19:17.264Z,2.17
2018-12-08T16:24:19.716Z,2.20
2018-12-08T16:29:22.169Z,3.20
2018-12-08T16:34:28.864Z,2.40
2018-12-08T16:39:33.356Z,2.70
2018-12-08T16:44:35.980Z,3.05
2018-12-08T16:49:38.668Z,2.10
2018-12-08T16:54:42.450Z,2.70
2018-12-08T16:59:46.074Z,2.00
2018-12-08T17:04:48.741Z,2.25
2018-12-08T17:09:51.382Z,3.05
2018-12-08T17:14:53.894Z,2.52
2018-12-08T17:19:56.495Z,3.27
2018-12-08T17:24:58.931Z,2.75
2018-12-08T17:30:01.350Z,2.40
2018-12-08T17:35:04.178Z,3.08
2018-12-08T17:40:07.986Z,3.15
2018-12-08T17:45:11.666Z,2.50
2018-12-08T17:50:14.404Z,2.87
2018-12-08T17:55:17.174Z,2.52
2018-12-08T18:00:19.761Z,2.60
2018-12-08T18:05:22.467Z,3.15
2018-12-08T18:10:28.591Z,2.80
2018-12-08T18:15:31.486Z,2.77
2018-12-08T18:20:34.006Z,3.17
2018-12-08T18:25:36.523Z,3.08
2018-12-08T18:30:39.054Z,2.92
2018-12-08T18:35:41.600Z,3.10
2018-12-08T18:40:44.111Z,3.20
2018-12-08T18:45:46.548Z,2.83
2018-12-08T18:50:49.016Z,3.52
2018-12-08T18:55:51.523Z,2.65
2018-12-08T19:00:54.190Z,2.98
2018-12-08T19:05:56.714Z,3.27
2018-12-08T19:10:59.181Z,2.30
2018-12-08T19:16:01.680Z,3.27
2018-12-08T19:21:04.263Z,2.60
2018-12-08T19:26:06.635Z,2.40
2018-12-08T19:31:09.069Z,2.60
2018-12-08T19:36:11.566Z,3.02
2018-12-08T19:41:14.076Z,2.42
2018-12-08T19:46:16.507Z,2.22
2018-12-08T19:51:19.410Z,2.40
2018-12-08T19:56:21.926Z,2.30
2018-12-08T20:01:24.390Z,2.33
2018-12-08T20:06:26.835Z,2.30
2018-12-08T20:11:29.354Z,2.27
2018-12-08T20:16:31.887Z,1.95
2018-12-08T20:21:34.477Z,2.37
2018-12-08T20:26:36.967Z,2.33
2018-12-08T20:31:39.571Z,2.42
2018-12-08T20:36:42.060Z,2.60
2018-12-08T20:41:44.554Z,2.42
2018-12-08T20:46:47.151Z,2.20
2018-12-08T20:51:50.021Z,2.10
2018-12-08T20:56:52.533Z,2.37
2018-12-08T21:01:55.065Z,2.27
2018-12-08T21:06:57.510Z,2.58
2018-12-08T21:12:00.065Z,2.85
2018-12-08T21:17:02.630Z,2.40
2018-12-08T21:22:05.344Z,2.80
2018-12-08T21:27:08.142Z,2.55
2018-12-08T21:32:10.999Z,3.30
2018-12-08T21:37:13.887Z,2.67
2018-12-08T21:42:16.434Z,2.50
2018-12-08T21:47:18.921Z,2.40
2018-12-08T21:52:21.386Z,2.65
2018-12-08T21:57:24.817Z,2.40
2018-12-08T22:02:27.432Z,3.33
2018-12-08T22:07:29.912Z,2.90
2018-12-08T22:12:32.414Z,2.33
2018-12-08T22:17:34.929Z,2.22
2018-12-08T22:22:37.828Z,2.05
2018-12-08T22:27:40.360Z,2.20
2018-12-08T22:32:42.790Z,2.22
2018-12-08T22:37:45.245Z,1.70
2018-12-08T22:42:47.740Z,2.10
2018-12-08T22:47:50.589Z,1.92
2018-12-08T22:52:53.133Z,1.50
2018-12-08T22:57:55.636Z,1.57
2018-12-08T23:02:58.141Z,2.30
2018-12-08T23:08:00.643Z,1.70
2018-12-08T23:13:03.338Z,1.75
2018-12-08T23:18:05.843Z,1.70
2018-12-08T23:23:08.467Z,1.77
2018-12-08T23:28:10.906Z,1.60
2018-12-08T23:33:13.319Z,1.87
2018-12-08T23:38:19.162Z,1.65
2018-12-08T23:43:21.838Z,1.30
2018-12-08T23:48:25.821Z,1.67
2018-12-08T23:53:28.798Z,1.50
2018-12-08T23:58:31.602Z,1.77
